Time;durP1;ratioP1;P1;durP2;ratioP2;P2;SDS_P1;SDS_P2;PMS_P1;PMS_P2;Temp;Humidity;BMP_temperature;BMP_pressure;BME280_temperature;BME280_humidity;BME280_pressure;Samples;Min_cycle;Max_cycle;Signal;HPM_P1;HPM_P2
2021/11/27 00:01:34;;;;;;;57.35;40.00;;;256.90;2252.80;;;;;;5056647;28;20028;-82
2021/11/27 00:04:01;;;;;;;50.35;32.75;;;256.90;2252.80;;;;;;5056808;28;20510;-82
2021/11/27 00:06:27;;;;;;;15.35;11.10;;;256.80;2252.80;;;;;;5056044;28;20048;-83
2021/11/27 00:08:54;;;;;;;11.57;7.63;;;256.80;2252.80;;;;;;5056590;28;20115;-83
2021/11/27 00:11:21;;;;;;;11.05;6.40;;;256.90;2252.80;;;;;;5056717;28;20024;-82
2021/11/27 00:13:47;;;;;;;9.43;6.03;;;256.80;2252.80;;;;;;5056327;28;20017;-82
2021/11/27 00:16:13;;;;;;;10.85;6.25;;;256.80;2252.80;;;;;;5056416;28;20115;-82
2021/11/27 00:18:38;;;;;;;9.68;6.07;;;256.80;2252.80;;;;;;5056498;28;20035;-82
2021/11/27 00:21:09;;;;;;;11.98;8.10;;;256.80;2252.80;;;;;;5055497;28;20025;-82
2021/11/27 00:23:36;;;;;;;10.57;6.57;;;256.80;2252.80;;;;;;5074259;28;20027;-82
2021/11/27 00:26:04;;;;;;;10.93;8.13;;;256.80;2252.80;;;;;;5056308;28;20020;-82
2021/11/27 00:28:30;;;;;;;12.75;8.30;;;256.70;2252.80;;;;;;5074076;28;20013;-82
2021/11/27 00:31:00;;;;;;;16.98;10.63;;;256.70;2252.80;;;;;;5056301;28;20471;-82
2021/11/27 00:33:26;;;;;;;18.98;11.35;;;256.70;2252.80;;;;;;5056326;28;20023;-82
2021/11/27 00:35:52;;;;;;;16.17;9.90;;;256.80;2252.80;;;;;;5055876;28;20029;-82
2021/11/27 00:38:18;;;;;;;8.68;6.10;;;256.80;2252.80;;;;;;5056160;28;20032;-82
2021/11/27 00:40:45;;;;;;;11.40;6.65;;;256.70;2252.80;;;;;;5056042;28;20472;-82
2021/11/27 00:43:12;;;;;;;13.98;8.00;;;256.80;2252.80;;;;;;5074134;28;20398;-82
2021/11/27 00:45:40;;;;;;;71.70;39.58;;;256.60;2252.80;;;;;;5056279;28;20020;-82
2021/11/27 00:48:08;;;;;;;58.65;33.40;;;256.70;2252.80;;;;;;5055817;28;20027;-83
2021/11/27 00:50:47;;;;;;;48.97;26.60;;;256.70;2252.80;;;;;;5055992;28;20021;-83
2021/11/27 00:53:13;;;;;;;42.05;25.17;;;256.70;2252.80;;;;;;5056211;28;20017;-83
2021/11/27 00:55:40;;;;;;;41.25;26.85;;;256.70;2252.80;;;;;;5073502;28;20099;-83
2021/11/27 00:58:06;;;;;;;45.15;30.60;;;256.50;2252.80;;;;;;5056058;28;20025;-83
2021/11/27 01:00:37;;;;;;;39.33;23.65;;;256.60;2252.80;;;;;;5055644;28;20056;-83
2021/11/27 01:03:05;;;;;;;83.00;41.58;;;256.50;2252.80;;;;;;5055703;28;20021;-82
2021/11/27 01:05:32;;;;;;;83.93;43.08;;;256.40;2252.80;;;;;;5055867;28;20464;-83
2021/11/27 01:07:59;;;;;;;56.17;29.80;;;256.40;2252.80;;;;;;5056129;28;20151;-83
2021/11/27 01:10:28;;;;;;;38.22;21.02;;;256.40;2252.80;;;;;;5056382;28;20023;-82
2021/11/27 01:12:55;;;;;;;28.48;17.55;;;256.40;2252.80;;;;;;5056093;28;20025;-83
2021/11/27 01:15:25;;;;;;;19.25;14.93;;;256.50;2252.80;;;;;;5073832;28;20055;-83
2021/11/27 01:17:52;;;;;;;21.65;13.57;;;256.40;2252.80;;;;;;5055640;28;20032;-82
2021/11/27 01:20:21;;;;;;;23.13;14.95;;;256.30;2252.80;;;;;;5055901;28;20064;-82
2021/11/27 01:22:47;;;;;;;44.83;22.58;;;256.40;2252.80;;;;;;5055881;28;20085;-83
2021/11/27 01:25:14;;;;;;;37.40;22.30;;;256.40;2252.80;;;;;;5055875;28;20017;-83
2021/11/27 01:27:39;;;;;;;50.67;28.98;;;256.40;2252.80;;;;;;5055530;28;20109;-83
2021/11/27 01:30:08;;;;;;;58.47;33.60;;;256.50;2252.80;;;;;;5055821;28;20025;-82
2021/11/27 01:32:35;;;;;;;68.25;36.03;;;256.40;2252.80;;;;;;5056424;28;20069;-83
2021/11/27 01:35:01;;;;;;;61.67;34.50;;;256.40;2252.80;;;;;;5059704;28;20025;-83
2021/11/27 01:37:27;;;;;;;44.70;28.33;;;256.40;2252.80;;;;;;5077822;28;20016;-83
2021/11/27 01:39:52;;;;;;;42.47;25.38;;;256.30;2252.80;;;;;;5077639;28;20035;-83
2021/11/27 01:42:18;;;;;;;26.65;17.90;;;256.30;2252.80;;;;;;5059533;28;20039;-83
2021/11/27 01:44:45;;;;;;;18.23;12.18;;;256.30;2252.80;;;;;;5059553;28;20039;-83
2021/11/27 01:47:11;;;;;;;15.15;11.25;;;256.30;2252.80;;;;;;5059555;28;20024;-83
2021/11/27 01:49:37;;;;;;;15.88;11.20;;;256.20;2252.80;;;;;;5059473;28;20368;-83
2021/11/27 01:52:04;;;;;;;17.77;12.48;;;256.20;2252.80;;;;;;5059444;28;20028;-83
2021/11/27 01:54:30;;;;;;;14.27;10.45;;;256.30;2252.80;;;;;;5059557;28;20024;-83
2021/11/27 01:56:59;;;;;;;17.05;12.68;;;256.30;2252.80;;;;;;5059102;28;20043;-83
2021/11/27 01:59:26;;;;;;;16.50;11.20;;;256.30;2252.80;;;;;;5059336;28;20120;-83
2021/11/27 02:01:53;;;;;;;28.52;19.63;;;256.30;2252.80;;;;;;5059080;28;20016;-82
2021/11/27 02:04:19;;;;;;;28.77;20.38;;;256.10;2252.80;;;;;;5059365;28;20440;-83
2021/11/27 02:06:45;;;;;;;13.60;9.40;;;256.30;2252.80;;;;;;5058838;28;20055;-83
2021/11/27 02:09:27;;;;;;;12.02;7.65;;;256.30;2252.80;;;;;;5077042;28;20375;-83
2021/11/27 02:11:54;;;;;;;10.55;7.60;;;256.30;2252.80;;;;;;5059303;28;20043;-83
2021/11/27 02:14:20;;;;;;;12.65;9.07;;;256.30;2252.80;;;;;;5059084;28;20025;-83
2021/11/27 02:16:47;;;;;;;14.15;9.82;;;256.30;2252.80;;;;;;5058868;28;20028;-82
2021/11/27 02:19:15;;;;;;;15.02;10.73;;;256.20;2252.80;;;;;;5059094;28;20468;-83
2021/11/27 02:21:44;;;;;;;14.00;9.75;;;256.10;2252.80;;;;;;5059060;28;20055;-83
2021/11/27 02:24:11;;;;;;;11.43;8.82;;;256.30;2252.80;;;;;;5058985;28;20020;-83
2021/11/27 02:26:37;;;;;;;14.25;10.40;;;256.10;2252.80;;;;;;5058991;28;20431;-83
2021/11/27 02:29:25;;;;;;;16.58;10.80;;;256.20;2252.80;;;;;;5096878;28;20095;-83
2021/11/27 02:31:52;;;;;;;15.48;10.82;;;256.10;2252.80;;;;;;5078791;28;20516;-83
2021/11/27 02:34:18;;;;;;;16.67;11.00;;;256.10;2252.80;;;;;;5078939;28;20016;-83
2021/11/27 02:36:48;;;;;;;21.85;14.63;;;256.10;2252.80;;;;;;5078501;28;20034;-82
2021/11/27 02:39:15;;;;;;;21.08;15.48;;;256.10;2252.80;;;;;;5078783;28;20031;-83
2021/11/27 02:41:41;;;;;;;19.77;13.38;;;256.10;2252.80;;;;;;5078630;28;20027;-82
2021/11/27 02:44:08;;;;;;;20.02;14.07;;;256.20;2252.80;;;;;;5078086;28;20024;-83
2021/11/27 02:46:36;;;;;;;17.40;11.73;;;256.10;2252.80;;;;;;5083195;28;20028;-83
2021/11/27 02:49:03;;;;;;;14.70;10.77;;;256.20;2252.80;;;;;;5080041;28;20020;-83
2021/11/27 02:51:29;;;;;;;10.50;8.32;;;256.20;2252.80;;;;;;5078624;28;20020;-82
2021/11/27 02:53:54;;;;;;;14.38;9.85;;;256.10;2252.80;;;;;;5099645;28;20026;-82
2021/11/27 02:56:20;;;;;;;12.73;8.63;;;256.10;2252.80;;;;;;5078276;28;20037;-82
2021/11/27 02:58:46;;;;;;;9.77;5.57;;;256.10;2252.80;;;;;;5078092;28;20023;-81
2021/11/27 03:01:12;;;;;;;9.52;6.70;;;256.20;2252.80;;;;;;5078023;28;20024;-82
2021/11/27 03:03:39;;;;;;;8.10;5.65;;;256.20;2252.80;;;;;;5078166;28;20452;-83
2021/11/27 03:06:06;;;;;;;11.35;6.88;;;256.20;2252.80;;;;;;5077796;28;20383;-82
2021/11/27 03:08:33;;;;;;;9.63;6.60;;;256.30;2252.80;;;;;;5078115;28;20020;-82
2021/11/27 03:11:00;;;;;;;8.40;5.60;;;256.30;2252.80;;;;;;5078036;28;20419;-81
2021/11/27 03:13:32;;;;;;;14.32;9.13;;;256.30;2252.80;;;;;;5095594;28;20059;-82
2021/11/27 03:15:59;;;;;;;13.30;8.10;;;256.30;2252.80;;;;;;5077709;28;20371;-82
2021/11/27 03:18:24;;;;;;;10.13;7.30;;;256.30;2252.80;;;;;;5077715;28;20367;-82
2021/11/27 03:20:51;;;;;;;11.35;7.85;;;256.20;2252.80;;;;;;5095484;28;20024;-82
2021/11/27 03:23:19;;;;;;;11.80;8.27;;;256.20;2252.80;;;;;;5077387;28;20066;-82
2021/11/27 03:25:44;;;;;;;11.10;7.32;;;256.20;2252.80;;;;;;5077159;28;20333;-82
2021/11/27 03:28:10;;;;;;;12.63;7.53;;;256.20;2252.80;;;;;;5077326;28;20148;-81
2021/11/27 03:30:36;;;;;;;10.05;6.18;;;256.20;2252.80;;;;;;5077486;28;20073;-82
2021/11/27 03:33:03;;;;;;;7.60;5.20;;;256.20;2252.80;;;;;;5077063;28;20020;-81
2021/11/27 03:35:29;;;;;;;7.20;4.80;;;256.20;2252.80;;;;;;5095004;28;20024;-82
2021/11/27 03:37:56;;;;;;;7.10;4.00;;;256.30;2252.80;;;;;;5077489;28;20031;-82
2021/11/27 03:40:24;;;;;;;5.57;3.67;;;256.30;2252.80;;;;;;5076916;28;20047;-81
2021/11/27 03:42:49;;;;;;;5.95;4.13;;;256.30;2252.80;;;;;;5077255;28;20031;-82
2021/11/27 03:45:19;;;;;;;7.35;4.45;;;256.70;2252.80;;;;;;5095425;28;20460;-82
2021/11/27 03:48:04;;;;;;;7.43;4.55;;;256.20;2252.80;;;;;;5095236;28;20530;-82
2021/11/27 03:50:33;;;;;;;12.35;8.43;;;256.10;2252.80;;;;;;5076910;28;20031;-82
2021/11/27 03:53:00;;;;;;;17.95;9.98;;;256.10;2252.80;;;;;;5095458;28;20031;-82
2021/11/27 03:55:26;;;;;;;29.80;20.05;;;256.10;2252.80;;;;;;5076614;28;20024;-82
2021/11/27 03:57:51;;;;;;;15.55;10.65;;;231.30;2252.80;;;;;;5076158;28;20356;-82
2021/11/27 04:00:17;;;;;;;17.05;10.98;;;231.30;2252.80;;;;;;5076626;28;20020;-82
2021/11/27 04:02:43;;;;;;;17.20;10.43;;;231.20;2252.80;;;;;;5076577;28;20088;-82
2021/11/27 04:05:10;;;;;;;18.08;12.00;;;231.30;2252.80;;;;;;5076499;28;20408;-82
2021/11/27 04:07:36;;;;;;;18.17;13.82;;;231.20;2252.80;;;;;;5094964;28;20047;-82
2021/11/27 04:10:03;;;;;;;17.27;12.93;;;231.20;2252.80;;;;;;5076403;28;20024;-82
2021/11/27 04:12:29;;;;;;;14.88;10.60;;;231.00;2252.80;;;;;;5094846;28;20149;-83
2021/11/27 04:14:55;;;;;;;11.02;8.18;;;231.00;2252.80;;;;;;5076418;28;20111;-82
2021/11/27 04:17:20;;;;;;;18.15;12.55;;;231.00;2252.80;;;;;;5076503;28;20069;-82
2021/11/27 04:19:46;;;;;;;13.43;8.10;;;231.00;2252.80;;;;;;5076360;28;20031;-82
2021/11/27 04:22:12;;;;;;;11.63;7.68;;;231.10;2252.80;;;;;;5075869;28;20027;-82
2021/11/27 04:24:39;;;;;;;19.08;10.02;;;231.20;2252.80;;;;;;5076532;28;20103;-82
2021/11/27 04:27:05;;;;;;;17.92;8.75;;;256.00;2252.80;;;;;;5076492;28;20024;-82
2021/11/27 04:29:31;;;;;;;15.90;9.05;;;256.10;2252.80;;;;;;5094399;28;20432;-82
2021/11/27 04:31:57;;;;;;;16.63;11.20;;;256.00;2252.80;;;;;;5094554;28;20023;-82
2021/11/27 04:34:23;;;;;;;14.10;7.53;;;256.00;2252.80;;;;;;5094439;28;20016;-82
2021/11/27 04:36:49;;;;;;;10.85;7.53;;;256.00;2252.80;;;;;;5075848;28;20439;-82
2021/11/27 04:39:15;;;;;;;16.58;8.73;;;256.10;2252.80;;;;;;5076268;28;20391;-82
2021/11/27 04:41:41;;;;;;;41.13;17.20;;;256.20;2252.80;;;;;;5076314;28;20115;-82
2021/11/27 04:44:06;;;;;;;95.47;39.25;;;256.20;2252.80;;;;;;5075637;28;20111;-83
2021/11/27 04:46:32;;;;;;;64.22;29.33;;;256.20;2252.80;;;;;;5094254;28;20024;-82
2021/11/27 04:48:58;;;;;;;58.85;28.58;;;256.20;2252.80;;;;;;5076287;28;20474;-82
2021/11/27 04:51:24;;;;;;;61.55;38.33;;;256.20;2252.80;;;;;;5093745;28;20016;-82
2021/11/27 04:53:50;;;;;;;60.38;38.60;;;256.00;2252.80;;;;;;5076060;28;20031;-82
2021/11/27 04:56:15;;;;;;;71.18;44.63;;;256.20;2252.80;;;;;;5075972;28;20028;-82
2021/11/27 04:58:41;;;;;;;95.40;56.58;;;256.10;2252.80;;;;;;5093839;28;20028;-82
2021/11/27 05:01:07;;;;;;;106.30;61.65;;;256.00;2252.80;;;;;;5076193;28;20031;-82
2021/11/27 05:03:33;;;;;;;73.45;45.80;;;231.30;2252.80;;;;;;5076587;28;20027;-82
2021/11/27 05:05:59;;;;;;;70.60;43.33;;;231.30;2252.80;;;;;;5075180;28;20020;-82
2021/11/27 05:08:25;;;;;;;55.13;33.13;;;231.30;2252.80;;;;;;5075843;28;20081;-82
2021/11/27 05:10:51;;;;;;;36.17;23.73;;;231.20;2252.80;;;;;;5075578;28;20398;-81
2021/11/27 05:13:18;;;;;;;37.33;24.88;;;231.30;2252.80;;;;;;5094047;28;20027;-81
2021/11/27 05:15:43;;;;;;;21.70;13.38;;;231.30;2252.80;;;;;;5075873;28;20058;-80
2021/11/27 05:18:09;;;;;;;28.73;18.02;;;231.30;2252.80;;;;;;5075432;28;20420;-81
2021/11/27 05:20:35;;;;;;;17.20;11.73;;;256.00;2252.80;;;;;;5075659;28;20020;-81
2021/11/27 05:23:01;;;;;;;44.35;29.25;;;256.10;2252.80;;;;;;5075751;28;20024;-82
2021/11/27 05:25:27;;;;;;;97.20;49.13;;;256.00;2252.80;;;;;;5093907;28;20031;-81
2021/11/27 05:27:53;;;;;;;95.90;49.38;;;256.10;2252.80;;;;;;5075710;28;20414;-82
2021/11/27 05:30:20;;;;;;;108.57;52.03;;;256.00;2252.80;;;;;;5075729;28;20024;-81
2021/11/27 05:35:24;;;;;;;83.95;43.80;;;231.30;2252.80;;;;;;5093795;28;20020;-81
2021/11/27 05:37:50;;;;;;;44.40;23.20;;;256.00;2252.80;;;;;;5075623;28;20024;-81
2021/11/27 05:40:16;;;;;;;64.68;35.35;;;256.00;2252.80;;;;;;5075328;28;20097;-81
2021/11/27 05:42:43;;;;;;;36.83;20.85;;;231.30;2252.80;;;;;;5093552;28;20031;-81
2021/11/27 05:45:10;;;;;;;18.70;12.48;;;231.30;2252.80;;;;;;5075442;28;20066;-81
2021/11/27 05:47:36;;;;;;;18.38;12.18;;;231.30;2252.80;;;;;;5093421;28;20028;-82
2021/11/27 05:50:03;;;;;;;23.52;13.65;;;256.00;2252.80;;;;;;5075521;28;20050;-80
2021/11/27 05:52:29;;;;;;;12.82;8.13;;;256.00;2252.80;;;;;;5093681;28;20024;-81
2021/11/27 05:54:55;;;;;;;11.32;6.57;;;256.00;2252.80;;;;;;5075274;28;20038;-81
2021/11/27 05:57:21;;;;;;;12.13;6.45;;;256.10;2252.80;;;;;;5075338;28;20485;-81
2021/11/27 05:59:46;;;;;;;10.70;7.50;;;256.10;2252.80;;;;;;5075105;28;20027;-80
2021/11/27 06:02:13;;;;;;;13.93;9.55;;;256.10;2252.80;;;;;;5075451;28;20026;-80
2021/11/27 06:04:39;;;;;;;16.70;11.23;;;256.20;2252.80;;;;;;5075284;28;20020;-81
2021/11/27 06:07:05;;;;;;;16.77;12.38;;;256.20;2252.80;;;;;;5074767;28;20044;-80
2021/11/27 06:09:31;;;;;;;15.38;10.30;;;256.20;2252.80;;;;;;5074871;28;20477;-81
2021/11/27 06:11:57;;;;;;;18.70;11.15;;;256.40;2252.80;;;;;;5093126;28;20016;-81
2021/11/27 06:14:22;;;;;;;11.73;8.52;;;256.30;2252.80;;;;;;5074999;28;20016;-80
2021/11/27 06:16:48;;;;;;;17.30;14.40;;;256.40;2252.80;;;;;;5074886;28;20020;-81
2021/11/27 06:19:14;;;;;;;18.33;13.75;;;256.40;2252.80;;;;;;5075384;28;20456;-81
2021/11/27 06:21:40;;;;;;;19.15;14.00;;;256.40;2252.80;;;;;;5078388;28;20024;-81
2021/11/27 06:24:09;;;;;;;32.75;23.77;;;256.40;2252.80;;;;;;5078699;28;20077;-80
2021/11/27 06:26:35;;;;;;;44.83;29.05;;;256.40;2252.80;;;;;;5097303;28;20103;-81
2021/11/27 06:29:02;;;;;;;27.92;16.95;;;256.40;2252.80;;;;;;5078457;28;20085;-81
2021/11/27 06:31:28;;;;;;;15.38;9.35;;;256.30;2252.80;;;;;;5096739;28;20099;-80
2021/11/27 06:33:54;;;;;;;22.55;12.77;;;256.40;2252.80;;;;;;5096848;28;20055;-81
2021/11/27 06:36:19;;;;;;;35.90;18.80;;;256.40;2252.80;;;;;;5078495;28;20031;-80
2021/11/27 06:38:45;;;;;;;28.30;21.90;;;256.40;2252.80;;;;;;5078117;28;20655;-80
2021/11/27 06:41:11;;;;;;;33.88;27.08;;;256.40;2252.80;;;;;;5078305;28;20016;-80
2021/11/27 06:43:37;;;;;;;39.38;33.47;;;256.40;2252.80;;;;;;5078102;28;20072;-81
2021/11/27 06:46:02;;;;;;;57.40;45.47;;;256.40;2252.80;;;;;;5096412;28;20031;-81
2021/11/27 06:48:29;;;;;;;50.58;37.63;;;256.40;2252.80;;;;;;5078216;28;20470;-81
2021/11/27 06:50:55;;;;;;;61.97;45.38;;;256.50;2252.80;;;;;;5077879;28;20165;-81
2021/11/27 06:53:21;;;;;;;87.60;63.92;;;256.50;2252.80;;;;;;5096407;28;20052;-81
2021/11/27 06:55:46;;;;;;;113.72;80.93;;;256.50;2252.80;;;;;;5077791;28;20344;-81
2021/11/27 06:58:12;;;;;;;93.88;64.22;;;256.50;2252.80;;;;;;5096516;28;20028;-81
2021/11/27 07:00:38;;;;;;;75.38;48.38;;;256.50;2252.80;;;;;;5078030;28;20020;-81
2021/11/27 07:03:04;;;;;;;83.53;52.65;;;256.50;2252.80;;;;;;5095799;28;20073;-81
2021/11/27 07:05:30;;;;;;;84.47;60.10;;;256.60;2252.80;;;;;;5077994;28;20368;-80
2021/11/27 07:07:56;;;;;;;88.38;61.70;;;256.70;2252.80;;;;;;5077725;28;20040;-81
2021/11/27 07:10:22;;;;;;;94.80;64.45;;;256.70;2252.80;;;;;;5077598;28;20027;-80
2021/11/27 07:12:48;;;;;;;97.72;67.80;;;256.70;2252.80;;;;;;5077867;28;20020;-81
2021/11/27 07:15:13;;;;;;;104.40;73.15;;;256.80;2252.80;;;;;;5077860;28;20035;-81
2021/11/27 07:17:40;;;;;;;105.18;74.13;;;256.80;2252.80;;;;;;5095510;28;20444;-81
2021/11/27 07:20:08;;;;;;;120.30;85.55;;;256.90;2252.80;;;;;;5095652;28;20371;-82
2021/11/27 07:22:34;;;;;;;127.10;90.00;;;281.60;2278.40;;;;;;5095836;28;20031;-81
2021/11/27 07:24:59;;;;;;;100.38;73.90;;;281.60;2278.40;;;;;;5077438;28;20367;-81
2021/11/27 07:27:25;;;;;;;112.82;83.20;;;281.60;2278.40;;;;;;5077497;28;20028;-81
2021/11/27 07:29:51;;;;;;;111.43;78.93;;;281.60;2278.40;;;;;;5095388;28;20024;-80
2021/11/27 07:32:17;;;;;;;114.95;79.05;;;281.60;2278.40;;;;;;5076971;28;20016;-81
2021/11/27 07:34:42;;;;;;;103.32;73.65;;;281.70;2278.40;;;;;;5077294;28;20046;-82
2021/11/27 07:37:08;;;;;;;94.30;66.13;;;281.80;2278.40;;;;;;5077198;28;20038;-81
2021/11/27 07:39:36;;;;;;;88.13;64.43;;;281.90;2278.40;;;;;;5077030;28;20035;-80
2021/11/27 07:42:02;;;;;;;104.07;71.55;;;281.90;2278.40;;;;;;5095585;28;20043;-81
2021/11/27 07:44:28;;;;;;;99.18;66.85;;;282.00;2278.40;;;;;;5077272;28;20043;-81
2021/11/27 07:46:56;;;;;;;86.82;55.40;;;282.20;2278.40;;;;;;5076636;28;20066;-80
2021/11/27 07:49:23;;;;;;;56.45;32.85;;;282.40;2278.40;;;;;;5095321;28;20020;-80
2021/11/27 07:51:49;;;;;;;32.05;19.15;;;307.40;2304.00;;;;;;5076775;28;20020;-80
2021/11/27 07:54:15;;;;;;;24.73;12.45;;;308.00;2304.00;;;;;;5076920;28;20048;-81
2021/11/27 07:56:41;;;;;;;31.42;20.25;;;332.90;2329.60;;;;;;5094647;28;20066;-81
2021/11/27 07:59:07;;;;;;;23.42;14.55;;;333.20;2329.60;;;;;;5094417;28;20024;-81
2021/11/27 08:01:33;;;;;;;17.48;11.85;;;333.00;2329.60;;;;;;5076727;28;20024;-80
2021/11/27 08:04:00;;;;;;;18.70;12.65;;;332.90;2329.60;;;;;;5076765;28;20030;-81
2021/11/27 08:06:26;;;;;;;14.70;9.68;;;332.80;2329.60;;;;;;5072668;28;20051;-80
2021/11/27 08:08:52;;;;;;;9.95;6.85;;;332.80;2329.60;;;;;;5073272;28;20025;-81
2021/11/27 08:11:18;;;;;;;10.98;6.85;;;332.90;2329.60;;;;;;5073340;28;20069;-81
2021/11/27 08:13:45;;;;;;;10.68;7.20;;;332.90;2329.60;;;;;;5072925;28;20021;-81
2021/11/27 08:16:12;;;;;;;11.27;7.30;;;333.00;2329.60;;;;;;5074485;28;20021;-81
2021/11/27 08:18:38;;;;;;;13.25;9.18;;;332.80;2329.60;;;;;;5074096;28;20467;-81
2021/11/27 08:21:04;;;;;;;19.50;12.82;;;333.00;2329.60;;;;;;5056289;28;20016;-80
2021/11/27 08:23:30;;;;;;;19.58;13.93;;;333.00;2329.60;;;;;;5074628;28;20055;-81
2021/11/27 08:25:56;;;;;;;17.60;11.38;;;333.00;2329.60;;;;;;5056431;28;20380;-80
2021/11/27 08:28:22;;;;;;;24.73;17.55;;;333.10;2329.60;;;;;;5056157;28;20032;-81
2021/11/27 08:30:48;;;;;;;16.85;12.45;;;333.10;2329.60;;;;;;5074229;28;20026;-80
2021/11/27 08:33:14;;;;;;;14.20;9.48;;;333.10;2329.60;;;;;;5056049;28;20021;-81
2021/11/27 08:35:40;;;;;;;32.13;24.27;;;333.10;2329.60;;;;;;5073769;28;20032;-80
2021/11/27 08:38:06;;;;;;;17.48;13.15;;;333.10;2329.60;;;;;;5056073;28;20028;-81
2021/11/27 08:40:32;;;;;;;10.15;6.00;;;333.20;2329.60;;;;;;5074023;28;20056;-79
2021/11/27 08:42:58;;;;;;;10.57;8.45;;;333.20;2329.60;;;;;;5073321;28;20066;-81
2021/11/27 08:45:25;;;;;;;7.80;5.65;;;333.30;2329.60;;;;;;5073921;28;20020;-81
2021/11/27 08:47:51;;;;;;;11.70;7.43;;;333.40;2329.60;;;;;;5055702;28;20025;-81
2021/11/27 08:50:17;;;;;;;20.10;18.00;;;333.50;2329.60;;;;;;5073699;28;20452;-80
2021/11/27 08:52:43;;;;;;;6.60;4.38;;;333.60;2329.60;;;;;;5056140;28;20020;-81
2021/11/27 08:55:09;;;;;;;10.90;6.05;;;333.60;2329.60;;;;;;5055423;28;20419;-80
2021/11/27 08:57:35;;;;;;;13.18;7.45;;;333.60;2329.60;;;;;;5055796;28;20053;-81
2021/11/27 09:00:02;;;;;;;10.70;6.90;;;333.60;2329.60;;;;;;5055887;28;20031;-78
2021/11/27 09:02:28;;;;;;;10.63;8.07;;;333.60;2329.60;;;;;;5055442;28;20017;-79
2021/11/27 09:04:54;;;;;;;17.45;12.07;;;333.60;2329.60;;;;;;5055741;28;20025;-78
2021/11/27 09:07:20;;;;;;;11.20;6.70;;;333.60;2329.60;;;;;;5055263;28;20076;-79
2021/11/27 09:09:46;;;;;;;13.60;10.57;;;333.60;2329.60;;;;;;5055414;28;20462;-79
2021/11/27 09:12:15;;;;;;;16.50;12.15;;;333.60;2329.60;;;;;;5055706;28;20027;-80
2021/11/27 09:14:41;;;;;;;15.70;7.65;;;333.60;2329.60;;;;;;5055315;28;20025;-79
2021/11/27 09:17:07;;;;;;;13.50;9.55;;;333.60;2329.60;;;;;;5055188;28;20025;-79
2021/11/27 09:19:32;;;;;;;14.00;8.18;;;333.60;2329.60;;;;;;5072443;28;20067;-79
2021/11/27 09:21:58;;;;;;;16.48;9.82;;;333.60;2329.60;;;;;;5072534;28;20016;-78
2021/11/27 09:24:24;;;;;;;9.00;5.75;;;333.60;2329.60;;;;;;5072117;28;20028;-79
2021/11/27 09:26:51;;;;;;;7.63;4.82;;;333.70;2329.60;;;;;;5073445;28;20103;-79
2021/11/27 09:29:20;;;;;;;10.20;7.82;;;333.70;2329.60;;;;;;5072423;28;20020;-78
2021/11/27 09:31:47;;;;;;;14.88;9.05;;;333.70;2329.60;;;;;;5071778;28;20032;-79
2021/11/27 09:34:13;;;;;;;18.30;10.43;;;333.70;2329.60;;;;;;5072344;28;20111;-78
2021/11/27 09:36:41;;;;;;;18.23;12.40;;;358.40;2329.60;;;;;;5073420;28;20106;-79
2021/11/27 09:39:12;;;;;;;22.27;14.70;;;358.40;2329.60;;;;;;5072324;28;20021;-80
2021/11/27 09:41:41;;;;;;;16.52;10.32;;;358.40;2329.60;;;;;;5072190;28;20028;-79
2021/11/27 09:44:07;;;;;;;12.02;7.85;;;358.50;2329.60;;;;;;5072024;28;20383;-77
2021/11/27 09:46:35;;;;;;;16.88;10.80;;;358.50;2329.60;;;;;;5072200;28;20031;-81
2021/11/27 09:49:08;;;;;;;18.33;10.93;;;358.50;2329.60;;;;;;5072420;28;20020;-79
2021/11/27 09:51:37;;;;;;;13.45;7.72;;;358.50;2329.60;;;;;;5073350;28;20024;-77
2021/11/27 09:54:05;;;;;;;7.57;5.07;;;358.50;2329.60;;;;;;5071847;28;20020;-75
2021/11/27 09:56:31;;;;;;;8.88;6.00;;;358.50;2329.60;;;;;;5056690;28;20035;-76
2021/11/27 09:58:57;;;;;;;12.82;7.55;;;358.50;2329.60;;;;;;5074519;28;20063;-76
2021/11/27 10:01:35;;;;;;;10.65;5.85;;;358.50;2329.60;;;;;;5074903;28;20040;-75
2021/11/27 10:04:07;;;;;;;9.32;6.03;;;358.50;2329.60;;;;;;5074334;28;20027;-77
2021/11/27 10:06:39;;;;;;;11.13;5.13;;;358.40;2329.60;;;;;;5073153;28;20041;-75
2021/11/27 10:09:11;;;;;;;11.93;7.00;;;358.40;2329.60;;;;;;5075736;28;20032;-76
2021/11/27 10:11:37;;;;;;;11.33;5.97;;;358.40;2329.60;;;;;;5075126;28;20074;-75
2021/11/27 10:14:05;;;;;;;11.52;6.43;;;358.40;2329.60;;;;;;5075116;28;20029;-74
2021/11/27 10:16:33;;;;;;;11.95;7.43;;;333.70;2329.60;;;;;;5074049;28;20034;-76
2021/11/27 10:19:10;;;;;;;9.80;6.35;;;358.40;2329.60;;;;;;5073401;28;20471;-76
2021/11/27 10:21:38;;;;;;;12.30;5.55;;;358.40;2329.60;;;;;;5074488;28;20029;-76
2021/11/27 10:24:22;;;;;;;11.60;5.80;;;358.50;2329.60;;;;;;5074291;28;20058;-75
2021/11/27 10:26:49;;;;;;;12.57;6.07;;;358.60;2329.60;;;;;;5073528;28;20021;-77
2021/11/27 10:29:22;;;;;;;15.10;8.57;;;358.70;2329.60;;;;;;5076682;28;20021;-75
2021/11/27 10:31:49;;;;;;;;;;;358.70;2329.60;;;;;;5057631;28;20051;-76
2021/11/27 10:34:22;;;;;;;;;;;358.80;2329.60;;;;;;5059861;28;20604;-75
2021/11/27 10:36:49;;;;;;;;;;;358.80;2329.60;;;;;;5077808;28;19904;-75
2021/11/27 10:39:15;;;;;;;;;;;358.80;2329.60;;;;;;5096061;28;19903;-76
2021/11/27 10:41:59;;;;;;;;;;;358.90;2329.60;;;;;;5077118;28;20244;-75
2021/11/27 10:44:26;;;;;;;;;;;358.90;2329.60;;;;;;5077790;28;19987;-76
2021/11/27 10:46:52;;;;;;;;;;;359.00;2329.60;;;;;;5077523;28;20013;-75
2021/11/27 10:49:24;;;;;;;;;;;359.00;2329.60;;;;;;5076996;28;19999;-76
2021/11/27 10:52:03;;;;;;;;;;;359.00;2329.60;;;;;;5077617;28;19910;-76
2021/11/27 10:54:41;;;;;;;;;;;359.10;2329.60;;;;;;5095569;28;19904;-75
2021/11/27 10:57:07;;;;;;;;;;;359.00;2329.60;;;;;;5077162;28;19910;-74
2021/11/27 10:59:39;;;;;;;;;;;359.00;2329.60;;;;;;5095353;28;20258;-77
2021/11/27 11:02:07;;;;;;;;;;;359.00;2329.60;;;;;;5077486;28;20440;-77
2021/11/27 11:04:33;;;;;;;;;;;359.00;2329.60;;;;;;5093701;28;19990;-77
2021/11/27 11:07:18;;;;;;;;;;;359.00;2329.60;;;;;;5073023;28;19988;-77
2021/11/27 11:10:00;;;;;;;;;;;359.10;2329.60;;;;;;5057008;28;19911;-77
2021/11/27 11:12:40;;;;;;;;;;;359.10;2329.60;;;;;;5056175;28;19901;-75
2021/11/27 11:15:10;;;;;;;;;;;359.10;2329.60;;;;;;5053948;28;20372;-74
2021/11/27 11:17:36;;;;;;;;;;;359.10;2329.60;;;;;;5057134;28;19931;-77
2021/11/27 11:20:24;;;;;;;;;;;359.20;2329.60;;;;;;5057089;28;20344;-76
2021/11/27 11:23:07;;;;;;;;;;;359.20;2329.60;;;;;;5056706;28;19900;-75
2021/11/27 11:25:34;;;;;;;;;;;359.20;2329.60;;;;;;5057019;28;19908;-78
2021/11/27 11:28:18;;;;;;;;;;;359.20;2329.60;;;;;;5056515;28;19904;-78
2021/11/27 11:30:45;;;;;;;;;;;359.20;2329.60;;;;;;5056576;28;19991;-78
2021/11/27 11:33:12;;;;;;;;;;;359.20;2329.60;;;;;;5073484;28;19954;-76
2021/11/27 11:35:37;;;;;;;;;;;359.20;2329.60;;;;;;5087787;28;19979;-76
2021/11/27 11:38:07;;;;;;;;;;;359.20;2329.60;;;;;;5072491;28;20011;-76
2021/11/27 11:40:33;;;;;;;;;;;359.30;2329.60;;;;;;5056784;28;19912;-76
2021/11/27 11:42:59;;;;;;;;;;;359.20;2329.60;;;;;;5051101;28;20343;-78
2021/11/27 11:45:25;;;;;;;;;;;359.20;2329.60;;;;;;5056238;28;19904;-78
2021/11/27 11:47:51;;;;;;;;;;;359.10;2329.60;;;;;;5056406;28;19970;-77
2021/11/27 11:50:18;;;;;;;;;;;359.10;2329.60;;;;;;5056204;28;19900;-78
2021/11/27 11:52:56;;;;;;;;;;;359.10;2329.60;;;;;;5073986;28;19900;-76
2021/11/27 11:55:23;;;;;;;;;;;359.10;2329.60;;;;;;5056393;28;20259;-76
2021/11/27 11:57:56;;;;;;;;;;;359.10;2329.60;;;;;;5056018;28;20340;-76
2021/11/27 12:00:26;;;;;;;;;;;359.00;2329.60;;;;;;5079244;28;19953;-77
2021/11/27 12:03:01;;;;;;;;;;;359.10;2329.60;;;;;;5076398;28;19939;-76
2021/11/27 12:05:27;;;;;;;;;;;359.10;2329.60;;;;;;5072780;28;19899;-77
2021/11/27 12:07:53;;;;;;;;;;;359.00;2329.60;;;;;;5055264;28;19918;-77
2021/11/27 12:10:20;;;;;;;;;;;359.10;2329.60;;;;;;5073921;28;19905;-77
2021/11/27 12:13:09;;;;;;;;;;;359.10;2329.60;;;;;;5052661;28;19910;-77
2021/11/27 12:15:42;;;;;;;;;;;359.10;2329.60;;;;;;5041585;28;19908;-77
2021/11/27 12:18:16;;;;;;;;;;;359.10;2329.60;;;;;;5032806;28;19904;-76
2021/11/27 12:20:59;;;;;;;;;;;359.10;2329.60;;;;;;5035731;28;19905;-77